AirNav   Everest Fuels
 
 573 users online  

KNFE Fentress Naval Auxiliary Field
Fentress, Virginia, USA

GOING TO FENTRESS?


FAA INFORMATION EFFECTIVE 25 APRIL 2019

Location

FAA Identifier: NFE
Lat/Long: 36-41-31.3310N / 076-08-04.4305W
36-41.522183N / 076-08.073842W
36.6920364 / -76.1345640
(estimated)
Elevation: 16 ft. / 5 m (estimated)
Variation: 09W (1985)
Time zone: UTC -4 (UTC -5 during Standard Time)
Zip code: 23322

Airport Operations

Airport use: Private use. Permission required prior to landing
Activation date: 08/1943
Control tower: no
ARTCC: WASHINGTON CENTER
FSS: LEESBURG FLIGHT SERVICE STATION
Attendance: UNATNDD
Segmented circle: no
Lights: RY LGTS OPERATED BY CRASH CREW DURING SCHEDULED OPNS.

Airport Communications

OCEANA APPROACH: 123.9
OCEANA DEPARTURE: 123.9
WX AWOS-3 at CPK (9 nm W): 123.675 (757-204-4290)
WX ASOS at NTU (9 nm NE): PHONE DSN 433-3619 or 757-433-3619
WX ASOS at ORF (13 nm N): PHONE 757-460-9348
WX AWOS-3PT at PVG (16 nm W): 118.375 (757-465-2175)
WX AWOS-3 at ONX (18 nm S): 119.775 (252-453-8939)

Nearby radio navigation aids

VOR radial/distance  VOR name  Freq  Var
ORFr172/12.4NORFOLK VORTAC116.9007W
ECGr011/26.1ELIZABETH CITY VOR/DME112.5007W
CCVr199/39.9CAPE CHARLES VORTAC112.2010W

 
NDB name  Hdg/Dist  Freq  Var  ID
INGLE157/10.532909WOR --- .-.
WOODVILLE027/26.925410WLLW .-.. .-.. .--

Airport Services

Runway Information

Runway 5/23

Dimensions: 8004 x 175 ft. / 2440 x 53 m
Surface: asphalt
Weight bearing capacity: 
PCN 40 /R/C/W/T
Runway edge lights: low intensity
RUNWAY 5  RUNWAY 23
Latitude: 36-41.014033N36-42.030333N
Longitude: 076-08.595917W076-07.551767W
Elevation: 14.5 ft.14.2 ft.
Traffic pattern: leftleft
Runway heading: 049 magnetic, 040 true228 magnetic, 219 true
Touchdown point: yes, no lightsyes, no lights

Airport Ownership and Management from official FAA records

Ownership: U.S. Navy
Owner: US NAVY
OCEANOGRAPHIC OFC - CODE 3142
WASHINGTON, DC 20373

Instrument Procedures

There are no published instrument procedures at KNFE.

Some nearby airports with instrument procedures:

KCPK - Chesapeake Regional Airport (9 nm W)
KNTU - Oceana Naval Air Station (Apollo Soucek Field) (9 nm NE)
KORF - Norfolk International Airport (13 nm N)
KPVG - Hampton Roads Executive Airport (16 nm W)
KNGU - Norfolk Naval Station (Chambers Field) (16 nm NW)
KONX - Currituck County Regional Airport (18 nm S)
 
Loc | Ops | Rwys | IFR | FBO | Links
Com | Nav | Svcs | Stats | Notes
Area around KNFE (Fentress Naval Auxiliary Field)
 
Road maps at: MapQuest Bing Google
 
Aerial photo
WARNING: Photo may not be current or correct
Aerial photo of KNFE (Fentress Naval Auxiliary Field)
Do you have a better or more recent aerial photo of Fentress Naval Auxiliary Field that you would like to share? If so, please send us your photo.

 
Sectional chart

 
Airport distance calculator
Flying to Fentress Naval Auxiliary Field? Find the distance to fly.

From to KNFE

Sunrise and sunset
Times for 19-May-2019
 Local
(UTC-4)
 Zulu
(UTC)
Morning civil twilight05:2609:26
Sunrise05:5509:55
Sunset20:0700:07
Evening civil twilight20:3600:36

Current date and time
Zulu (UTC)  19-May-2019 11:56:27
Local (UTC-4)  19-May-2019 07:56:27
 
METAR
KNFE 191056Z AUTO 17005KT 4SM BR BKN004 23/21 A3006 RMK AO2 SLP180 T02280206
KCPK 
9nm W 
191135Z AUTO 18005KT 1/2SM RA OVC003 20/20 A3007 RMK AO2 T02030197
KNTU 
9nm NE 
191056Z 15006KT 5SM BR FEW120 FEW300 21/21 A3005 RMK AO2 SLP179 T02110206
KORF 
13nm N 
191051Z 18007KT 10SM CLR 23/21 A3005 RMK AO2 SLP174 T02280206 $
KNGU 
15nm NW 
191059Z 18003KT 7SM FEW120 FEW300 22/20 A3006 RMK AO2 SLP181 T02220200 $
KPVG 
16nm W 
191124Z AUTO VRB03KT 7SM FEW004 21/19 A3008 RMK AO2
KONX 
18nm S 
191120Z AUTO 3SM BR OVC003 21/21 A3008 RMK AO2 T02100210
TAF
KNTU 
9nm NE 
1907/2007 VRB06KT 9999 FEW060 FEW250 QNH3002INS TEMPO 1907/1912 6000 BR BECMG 1912/1914 16009KT 9999 NSW FEW080 SCT270 QNH3003INS FM191800 16014G20KT 9999 FEW020 SCT040 QNH2996INS BECMG 1921/1923 17012KT 9999 QNH2999INS T18/1908Z T29/1918Z COR 0723 FN00194
KORF 
13nm N 
190520Z 1906/2006 18005KT P6SM SCT250 FM191200 17006KT P6SM SCT100 FM191700 18010KT P6SM SCT050 FM192300 19007KT P6SM SCT150
KNGU 
15nm NW 
1907/2007 VRB06KT 9999 FEW060 FEW250 QNH3001INS TEMPO 1908/1912 9000 BR BECMG 1914/1915 16009KT 9999 FEW080 SCT270 QNH3002INS FM191900 15011G16KT 9999 FEW020 SCT040 QNH2998INS BECMG 1921/1923 17009KT 9999 QNH3000INS T20/1908Z T30/1919Z COR 0723 FN00194
NOTAMs
Click for the latest NOTAMs
NOTAMs are issued by the DoD/FAA and will open in a separate window not controlled by AirNav.

 

 
 

Would you like to see your business listed on this page?

 If your business provides an interesting product or service to pilots, flight crews, aircraft, or users of the Fentress Naval Auxiliary Field, you should consider listing it here.  To start the listing process, click on the button below
 
Add a business
 

Other Pages about Fentress Naval Auxiliary Field

Update a link
 
Copyright © AirNav, LLC. All rights reserved. Privacy Policy  Contact